createdAt,value
2016-12-31T00:00:10.713Z,72.49
2016-12-31T00:00:38.477Z,72.75
2016-12-31T00:01:06.233Z,72.3
2016-12-31T00:01:34.014Z,72.3
2016-12-31T00:02:01.831Z,72.17
2016-12-31T00:02:29.616Z,72.94
2016-12-31T00:02:57.386Z,73.14
2016-12-31T00:03:25.259Z,72.85
2016-12-31T00:03:53.126Z,73.04
2016-12-31T00:04:20.888Z,72.85
2016-12-31T00:04:48.680Z,73.43
2016-12-31T00:05:16.474Z,73.43
2016-12-31T00:05:44.238Z,72.85
2016-12-31T00:06:12.022Z,72.55
2016-12-31T00:06:39.832Z,72.75
2016-12-31T00:07:07.651Z,72.55
2016-12-31T00:07:35.383Z,72.55
2016-12-31T00:08:03.168Z,71.88
2016-12-31T00:08:31.024Z,71.97
2016-12-31T00:08:58.835Z,72.45
2016-12-31T00:09:26.606Z,72.07
2016-12-31T00:09:54.404Z,72.39
2016-12-31T00:10:22.220Z,71.97
2016-12-31T00:10:50.042Z,72.17
2016-12-31T00:11:17.950Z,72.55
2016-12-31T00:11:45.811Z,72.07
2016-12-31T00:12:13.743Z,72.17
2016-12-31T00:12:41.494Z,72.07
2016-12-31T00:13:09.235Z,71.78
2016-12-31T00:13:37.090Z,71.88
2016-12-31T00:14:04.879Z,71.72
2016-12-31T00:14:32.649Z,71.78
2016-12-31T00:15:00.510Z,71.33
2016-12-31T00:15:28.273Z,71.39
2016-12-31T00:15:56.053Z,71.68
2016-12-31T00:16:23.813Z,71.68
2016-12-31T00:16:51.614Z,71.88
2016-12-31T00:17:19.393Z,71.78
2016-12-31T00:17:47.238Z,71.58
2016-12-31T00:18:15.017Z,71.68
2016-12-31T00:18:43.005Z,71.48
2016-12-31T00:19:10.773Z,72.07
2016-12-31T00:19:38.556Z,72.36
2016-12-31T00:20:06.342Z,72.07
2016-12-31T00:20:34.131Z,71.58
2016-12-31T00:21:01.924Z,71.97
2016-12-31T00:21:29.704Z,71.68
2016-12-31T00:21:57.456Z,71.68
2016-12-31T00:22:25.250Z,71.97
2016-12-31T00:22:52.998Z,71.68
2016-12-31T00:23:20.709Z,71.2
2016-12-31T00:23:48.613Z,71.39
2016-12-31T00:24:16.403Z,70.51
2016-12-31T00:24:44.212Z,70.51
2016-12-31T00:25:11.971Z,70.81
2016-12-31T00:25:39.731Z,71.06
2016-12-31T00:26:07.498Z,71.06
2016-12-31T00:26:35.316Z,71.16
2016-12-31T00:27:03.105Z,71.1
2016-12-31T00:27:30.896Z,71.26
2016-12-31T00:27:58.703Z,71.88
2016-12-31T00:28:26.450Z,71.74
2016-12-31T00:28:54.347Z,71.68
2016-12-31T00:29:22.106Z,71.36
2016-12-31T00:29:49.915Z,71.64
2016-12-31T00:30:17.704Z,71.74
2016-12-31T00:30:45.480Z,71.84
2016-12-31T00:31:13.262Z,71.74
2016-12-31T00:31:41.048Z,71.74
2016-12-31T00:32:08.818Z,71.74
2016-12-31T00:32:36.594Z,71.55
2016-12-31T00:33:04.378Z,71.45
2016-12-31T00:33:32.179Z,71.68
2016-12-31T00:34:00.019Z,71.36
2016-12-31T00:34:27.806Z,71.64
2016-12-31T00:34:55.589Z,72.13
2016-12-31T00:35:23.348Z,72.23
2016-12-31T00:35:51.095Z,71.84
2016-12-31T00:36:18.878Z,71.84
2016-12-31T00:36:46.666Z,71.55
2016-12-31T00:37:14.518Z,71.84
2016-12-31T00:37:42.285Z,71.74
2016-12-31T00:38:10.272Z,71.64
2016-12-31T00:38:38.095Z,71.84
2016-12-31T00:39:05.964Z,72.23
2016-12-31T00:39:33.754Z,72.13
2016-12-31T00:40:01.512Z,72.13
2016-12-31T00:40:29.296Z,71.55
2016-12-31T00:40:57.035Z,71.55
2016-12-31T00:41:24.844Z,71.84
2016-12-31T00:41:52.620Z,71.29
2016-12-31T00:42:20.408Z,71.88
2016-12-31T00:42:48.164Z,71.29
2016-12-31T00:43:15.920Z,70.9
2016-12-31T00:43:43.679Z,71.1
2016-12-31T00:44:11.614Z,71.39
2016-12-31T00:44:39.406Z,70.71
2016-12-31T00:45:07.153Z,70.71
2016-12-31T00:45:35.089Z,71.39
2016-12-31T00:46:02.881Z,71.2
2016-12-31T00:46:30.710Z,70.61
2016-12-31T00:46:58.488Z,70.51
2016-12-31T00:47:26.314Z,70.81
2016-12-31T00:47:54.116Z,70.9
2016-12-31T00:48:21.929Z,71.2
2016-12-31T00:48:49.745Z,71.2
2016-12-31T00:49:17.651Z,70.81
2016-12-31T00:49:45.467Z,70.81
2016-12-31T00:50:13.339Z,70.61
2016-12-31T00:50:41.107Z,70.81
2016-12-31T00:51:08.910Z,70.61
2016-12-31T00:51:36.712Z,70.9
2016-12-31T00:52:04.555Z,70.61
2016-12-31T00:52:32.382Z,70.71
2016-12-31T00:53:00.192Z,70.71
2016-12-31T00:53:27.944Z,70.87
2016-12-31T00:53:55.717Z,71.26
2016-12-31T00:54:23.670Z,71.36
2016-12-31T00:54:51.586Z,71.74
2016-12-31T00:55:19.369Z,71.64
2016-12-31T00:55:47.098Z,71.84
2016-12-31T00:56:14.970Z,71.64
2016-12-31T00:56:42.774Z,71.2
2016-12-31T00:57:10.593Z,70.97
2016-12-31T00:57:38.383Z,71.55
2016-12-31T00:58:06.185Z,71.55
2016-12-31T00:58:33.972Z,71.84
2016-12-31T00:59:01.763Z,71.64
2016-12-31T00:59:29.757Z,72.33
2016-12-31T00:59:57.637Z,72.71
2016-12-31T01:00:25.554Z,72.23
2016-12-31T01:00:53.348Z,72.33
2016-12-31T01:01:21.132Z,72.42
2016-12-31T01:01:48.887Z,72.33
2016-12-31T01:02:16.728Z,72.71
2016-12-31T01:02:44.563Z,72.71
2016-12-31T01:03:12.338Z,72.33
2016-12-31T01:03:40.099Z,72.61
2016-12-31T01:04:07.888Z,73.16
2016-12-31T01:04:35.761Z,72.97
2016-12-31T01:05:03.503Z,72.91
2016-12-31T01:05:31.320Z,72.61
2016-12-31T01:05:59.114Z,72.91
2016-12-31T01:06:26.944Z,72.87
2016-12-31T01:06:54.847Z,72.42
2016-12-31T01:07:22.613Z,73.1
2016-12-31T01:07:50.393Z,72.58
2016-12-31T01:08:18.193Z,72.67
2016-12-31T01:08:45.892Z,73.1
2016-12-31T01:09:13.713Z,73.2
2016-12-31T01:09:41.720Z,73.1
2016-12-31T01:10:09.515Z,73.39
2016-12-31T01:10:37.304Z,72.42
2016-12-31T01:11:05.115Z,72.67
2016-12-31T01:11:32.944Z,73.3
2016-12-31T01:12:00.763Z,73.1
2016-12-31T01:12:28.574Z,73.1
2016-12-31T01:12:56.377Z,73.39
2016-12-31T01:13:24.155Z,72.58
2016-12-31T01:13:51.946Z,72.52
2016-12-31T01:14:19.843Z,72.39
2016-12-31T01:14:47.611Z,72.77
2016-12-31T01:15:15.381Z,73.55
2016-12-31T01:15:43.128Z,74.04
2016-12-31T01:16:10.891Z,73.74
2016-12-31T01:16:38.643Z,73.26
2016-12-31T01:17:06.409Z,73.65
2016-12-31T01:17:34.245Z,73.16
2016-12-31T01:18:02.044Z,72.87
2016-12-31T01:18:29.851Z,73.16
2016-12-31T01:18:57.613Z,72.97
2016-12-31T01:19:25.521Z,72.97
2016-12-31T01:19:53.291Z,72.81
2016-12-31T01:20:21.065Z,72.91
2016-12-31T01:20:48.886Z,72.71
2016-12-31T01:21:16.665Z,72.81
2016-12-31T01:21:44.438Z,73.1
2016-12-31T01:22:12.262Z,72.61
2016-12-31T01:22:40.057Z,72.23
2016-12-31T01:23:07.861Z,72.61
2016-12-31T01:23:35.632Z,72.61
2016-12-31T01:24:03.388Z,72.33
2016-12-31T01:24:31.337Z,71.84
2016-12-31T01:24:59.092Z,72.13
2016-12-31T01:25:26.971Z,72.81
2016-12-31T01:25:54.780Z,72.61
2016-12-31T01:26:22.588Z,72.52
2016-12-31T01:26:50.417Z,72.52
2016-12-31T01:27:18.213Z,72.61
2016-12-31T01:27:46.013Z,72.19
2016-12-31T01:28:13.789Z,72.71
2016-12-31T01:28:41.551Z,72.87
2016-12-31T01:29:09.401Z,73.36
2016-12-31T01:29:37.306Z,73.07
2016-12-31T01:30:05.114Z,73
2016-12-31T01:30:32.885Z,72.61
2016-12-31T01:31:00.684Z,72.58
2016-12-31T01:31:28.456Z,72.19
2016-12-31T01:31:56.314Z,72.49
2016-12-31T01:32:24.105Z,72.23
2016-12-31T01:32:51.861Z,72.42
2016-12-31T01:33:19.744Z,72.33
2016-12-31T01:33:47.604Z,72.42
2016-12-31T01:34:15.439Z,72.13
2016-12-31T01:34:43.346Z,72.13
2016-12-31T01:35:11.167Z,72.13
2016-12-31T01:35:38.992Z,71.84
2016-12-31T01:36:06.792Z,71.64
2016-12-31T01:36:34.647Z,72.23
2016-12-31T01:37:02.403Z,72.03
2016-12-31T01:37:30.186Z,72.13
2016-12-31T01:37:57.951Z,72.13
2016-12-31T01:38:25.732Z,72.33
2016-12-31T01:38:53.513Z,72.03
2016-12-31T01:39:21.323Z,72.33
2016-12-31T01:39:49.185Z,72.61
2016-12-31T01:40:16.929Z,72.39
2016-12-31T01:40:44.740Z,72.67
2016-12-31T01:41:12.539Z,72.97
2016-12-31T01:41:40.376Z,72.77
2016-12-31T01:42:08.209Z,73.07
2016-12-31T01:42:36.013Z,72.67
2016-12-31T01:43:03.805Z,72.77
2016-12-31T01:43:31.694Z,73.07
2016-12-31T01:43:59.455Z,73.26
2016-12-31T01:44:27.369Z,73.39
2016-12-31T01:44:55.379Z,72.81
2016-12-31T01:45:23.238Z,72.23
2016-12-31T01:45:51.104Z,72.42
2016-12-31T01:46:18.861Z,72.42
2016-12-31T01:46:46.743Z,72.09
2016-12-31T01:47:14.534Z,71.94
2016-12-31T01:47:42.309Z,72.33
2016-12-31T01:48:10.067Z,72.23
2016-12-31T01:48:37.821Z,72.03
2016-12-31T01:49:05.637Z,72.13
2016-12-31T01:49:33.483Z,71.84
2016-12-31T01:50:01.370Z,71.84
2016-12-31T01:50:29.162Z,71.84
2016-12-31T01:50:56.944Z,71.45
2016-12-31T01:51:24.743Z,71.64
2016-12-31T01:51:52.599Z,71.84
2016-12-31T01:52:20.456Z,71.94
2016-12-31T01:52:48.201Z,71.64
2016-12-31T01:53:16.027Z,71.26
2016-12-31T01:53:43.790Z,71.1
2016-12-31T01:54:11.702Z,71.2
2016-12-31T01:54:39.469Z,70.9
2016-12-31T01:55:07.355Z,71.06
2016-12-31T01:55:35.157Z,71.36
2016-12-31T01:56:02.978Z,70.87
2016-12-31T01:56:30.792Z,71.45
2016-12-31T01:56:58.600Z,71.26
2016-12-31T01:57:26.412Z,71.36
2016-12-31T01:57:54.204Z,70.87
2016-12-31T01:58:21.998Z,71.06
2016-12-31T01:58:49.775Z,71.55
2016-12-31T01:59:17.541Z,71.74
2016-12-31T01:59:45.319Z,71.55
2016-12-31T02:00:13.196Z,71.74
2016-12-31T02:00:40.956Z,71.74
2016-12-31T02:01:08.740Z,71.84
2016-12-31T02:01:36.660Z,71.48
2016-12-31T02:02:04.473Z,71.84
2016-12-31T02:02:32.198Z,70.81
2016-12-31T02:02:59.996Z,71
2016-12-31T02:03:27.775Z,71.1
2016-12-31T02:03:55.554Z,71.29
2016-12-31T02:04:23.366Z,71.39
2016-12-31T02:04:51.154Z,71
2016-12-31T02:05:19.071Z,70.81
2016-12-31T02:05:46.853Z,70.81
2016-12-31T02:06:14.628Z,70.81
2016-12-31T02:06:42.447Z,71.2
2016-12-31T02:07:10.220Z,71.39
2016-12-31T02:07:37.984Z,71.29
2016-12-31T02:08:05.752Z,70.81
2016-12-31T02:08:33.567Z,71.2
2016-12-31T02:09:01.341Z,71.2
2016-12-31T02:09:29.093Z,71.29
2016-12-31T02:09:56.873Z,70.81
2016-12-31T02:10:24.763Z,70.81
2016-12-31T02:10:52.590Z,71.1
2016-12-31T02:11:20.379Z,71.29
2016-12-31T02:11:48.198Z,71.39
2016-12-31T02:12:15.944Z,71
2016-12-31T02:12:43.706Z,71.29
2016-12-31T02:13:11.473Z,70.81
2016-12-31T02:13:39.248Z,70.9
2016-12-31T02:14:06.989Z,71.2
2016-12-31T02:14:34.790Z,71.1
2016-12-31T02:15:02.631Z,71.29
2016-12-31T02:15:30.548Z,70.9
2016-12-31T02:15:58.329Z,70.51
2016-12-31T02:16:26.163Z,71.1
2016-12-31T02:16:53.944Z,70.81
2016-12-31T02:17:21.709Z,70.71
2016-12-31T02:17:49.505Z,70.71
2016-12-31T02:18:17.287Z,70.71
2016-12-31T02:18:45.069Z,70.71
2016-12-31T02:19:12.869Z,70.71
2016-12-31T02:19:40.641Z,70.81
2016-12-31T02:20:08.434Z,71.29
2016-12-31T02:20:36.335Z,71.48
2016-12-31T02:21:04.089Z,71.58
2016-12-31T02:21:31.865Z,71.2
2016-12-31T02:21:59.666Z,71.1
2016-12-31T02:22:27.439Z,71.1
2016-12-31T02:22:55.259Z,70.61
2016-12-31T02:23:23.047Z,71.29
2016-12-31T02:23:50.912Z,70.61
2016-12-31T02:24:18.662Z,70.81
2016-12-31T02:24:46.478Z,70.97
2016-12-31T02:25:14.251Z,71.84
2016-12-31T02:25:42.172Z,71.55
2016-12-31T02:26:09.971Z,71.55
2016-12-31T02:26:37.725Z,71.74
2016-12-31T02:27:05.500Z,71.74
2016-12-31T02:27:33.324Z,71.84
2016-12-31T02:28:01.160Z,71.84
2016-12-31T02:28:28.988Z,72.03
2016-12-31T02:28:56.722Z,72.33
2016-12-31T02:29:24.506Z,71.94
2016-12-31T02:29:52.307Z,72.13
2016-12-31T02:30:20.173Z,72.23
2016-12-31T02:30:48.040Z,72.13
2016-12-31T02:31:15.849Z,72.23
2016-12-31T02:31:43.629Z,71.84
2016-12-31T02:32:11.442Z,71.64
2016-12-31T02:32:39.217Z,71.74
2016-12-31T02:33:06.994Z,71.94
2016-12-31T02:33:34.802Z,71.94
2016-12-31T02:34:02.609Z,71.45
2016-12-31T02:34:30.361Z,71.55
2016-12-31T02:34:58.170Z,71.64
2016-12-31T02:35:26.015Z,71.55
2016-12-31T02:35:53.879Z,71.64
2016-12-31T02:36:21.731Z,71.64
2016-12-31T02:36:49.552Z,71.64
2016-12-31T02:37:17.343Z,71.55
2016-12-31T02:37:45.119Z,71.64
2016-12-31T02:38:12.876Z,71.55
2016-12-31T02:38:40.653Z,71.36
2016-12-31T02:39:08.420Z,71.94
2016-12-31T02:39:36.184Z,71.55
2016-12-31T02:40:03.994Z,71.45
2016-12-31T02:40:31.901Z,71.55
2016-12-31T02:40:59.709Z,71.74
2016-12-31T02:41:27.517Z,71.74
2016-12-31T02:41:55.290Z,71.74
2016-12-31T02:42:23.106Z,71.84
2016-12-31T02:42:50.901Z,71.7
2016-12-31T02:43:18.674Z,71.36
2016-12-31T02:43:46.441Z,71.94
2016-12-31T02:44:14.210Z,71.61
2016-12-31T02:44:42.023Z,71.64
2016-12-31T02:45:09.759Z,71.94
2016-12-31T02:45:37.690Z,71.64
2016-12-31T02:46:05.490Z,71.74
2016-12-31T02:46:33.224Z,71.61
2016-12-31T02:47:01.219Z,71.64
2016-12-31T02:47:28.980Z,71.61
2016-12-31T02:47:56.794Z,71.84
2016-12-31T02:48:24.567Z,71.74
2016-12-31T02:48:52.361Z,72.29
2016-12-31T02:49:20.160Z,72.52
2016-12-31T02:49:47.970Z,72.39
2016-12-31T02:50:15.771Z,72.23
2016-12-31T02:50:43.618Z,71.55
2016-12-31T02:51:11.412Z,71.55
2016-12-31T02:51:39.209Z,71.84
2016-12-31T02:52:07.045Z,71.55
2016-12-31T02:52:34.887Z,71.64
2016-12-31T02:53:02.686Z,71.74
2016-12-31T02:53:30.460Z,71.55
2016-12-31T02:53:58.213Z,71.55
2016-12-31T02:54:25.985Z,71.94
2016-12-31T02:54:53.780Z,71.64
2016-12-31T02:55:21.563Z,71.74
2016-12-31T02:55:49.467Z,71.64
2016-12-31T02:56:17.273Z,71.94
2016-12-31T02:56:45.024Z,71.94
2016-12-31T02:57:12.787Z,71.84
2016-12-31T02:57:40.621Z,71.64
2016-12-31T02:58:08.409Z,71.84
2016-12-31T02:58:36.169Z,71.64
2016-12-31T02:59:03.938Z,71.84
2016-12-31T02:59:31.707Z,71.64
2016-12-31T02:59:59.561Z,71.36
2016-12-31T03:00:27.368Z,71.36
2016-12-31T03:00:55.242Z,70.97
2016-12-31T03:01:23.055Z,71.36
2016-12-31T03:01:50.858Z,71.16
2016-12-31T03:02:18.664Z,71.16
2016-12-31T03:02:46.454Z,70.97
2016-12-31T03:03:14.239Z,70.48
2016-12-31T03:03:42.089Z,71.36
2016-12-31T03:04:09.886Z,71.06
2016-12-31T03:04:37.682Z,70.97
2016-12-31T03:05:05.478Z,70.97
2016-12-31T03:05:33.264Z,71.16
2016-12-31T03:06:01.171Z,70.87
2016-12-31T03:06:28.953Z,70.87
2016-12-31T03:06:56.750Z,70.97
2016-12-31T03:07:24.516Z,70.87
2016-12-31T03:07:52.275Z,71.36
2016-12-31T03:08:20.037Z,71.26
2016-12-31T03:08:47.849Z,70.77
2016-12-31T03:09:15.584Z,71.16
2016-12-31T03:09:43.364Z,71.06
2016-12-31T03:10:11.150Z,70.87
2016-12-31T03:10:38.902Z,70.67
2016-12-31T03:11:06.793Z,70.97
2016-12-31T03:11:34.633Z,70.67
2016-12-31T03:12:02.396Z,71.22
2016-12-31T03:12:30.247Z,71.36
2016-12-31T03:12:58.151Z,70.77
2016-12-31T03:13:25.926Z,70.57
2016-12-31T03:13:53.688Z,70.39
2016-12-31T03:14:21.470Z,71.06
2016-12-31T03:14:49.215Z,70.87
2016-12-31T03:15:17.016Z,70.77
2016-12-31T03:15:44.792Z,71.26
2016-12-31T03:16:12.618Z,70.67
2016-12-31T03:16:40.443Z,70.87
2016-12-31T03:17:08.275Z,71.26
2016-12-31T03:17:36.097Z,70.77
2016-12-31T03:18:03.845Z,71.36
2016-12-31T03:18:31.673Z,70.77
2016-12-31T03:18:59.438Z,71.03
2016-12-31T03:19:27.260Z,71.26
2016-12-31T03:19:55.056Z,71.16
2016-12-31T03:20:22.835Z,71.03
2016-12-31T03:20:50.626Z,71.36
2016-12-31T03:21:18.447Z,70.64
2016-12-31T03:21:46.246Z,70.77
2016-12-31T03:22:14.162Z,70.87
2016-12-31T03:22:41.956Z,70.77
2016-12-31T03:23:09.718Z,70.97
2016-12-31T03:23:37.481Z,70.83
2016-12-31T03:24:05.276Z,70.77
2016-12-31T03:24:33.047Z,70.87
2016-12-31T03:25:00.856Z,70.77
2016-12-31T03:25:28.616Z,71.26
2016-12-31T03:25:56.405Z,71.16
2016-12-31T03:26:24.327Z,70.77
2016-12-31T03:26:52.129Z,71.26
2016-12-31T03:27:19.923Z,70.87
2016-12-31T03:27:47.760Z,70.87
2016-12-31T03:28:15.656Z,70.67
2016-12-31T03:28:43.408Z,70.87
2016-12-31T03:29:11.197Z,70.77
2016-12-31T03:29:38.961Z,71.06
2016-12-31T03:30:06.749Z,70.87
2016-12-31T03:30:34.545Z,71.06
2016-12-31T03:31:02.394Z,70.87
2016-12-31T03:31:30.259Z,71.06
2016-12-31T03:31:58.086Z,71.06
2016-12-31T03:32:25.833Z,70.97
2016-12-31T03:32:53.594Z,70.97
2016-12-31T03:33:21.371Z,71.16
2016-12-31T03:33:49.181Z,70.87
2016-12-31T03:34:16.936Z,71.16
2016-12-31T03:34:44.733Z,71.36
2016-12-31T03:35:12.529Z,71.36
2016-12-31T03:35:40.292Z,71.16
2016-12-31T03:36:08.059Z,71.16
2016-12-31T03:36:35.946Z,70.77
2016-12-31T03:37:03.765Z,70.97
2016-12-31T03:37:31.570Z,71.06
2016-12-31T03:37:59.380Z,71.06
2016-12-31T03:38:27.189Z,70.67
2016-12-31T03:38:54.957Z,70.77
2016-12-31T03:39:22.696Z,71.26
2016-12-31T03:39:50.608Z,70.77
2016-12-31T03:40:18.378Z,71.06
2016-12-31T03:40:46.168Z,70.87
2016-12-31T03:41:13.904Z,71.26
2016-12-31T03:41:41.806Z,70.48
2016-12-31T03:42:09.611Z,70.87
2016-12-31T03:42:37.420Z,71.26
2016-12-31T03:43:05.179Z,71.12
2016-12-31T03:43:32.974Z,71.06
2016-12-31T03:44:00.767Z,71.36
2016-12-31T03:44:28.559Z,71.45
2016-12-31T03:44:56.385Z,71.64
2016-12-31T03:45:24.156Z,71.74
2016-12-31T03:45:51.912Z,71.36
2016-12-31T03:46:19.698Z,71.36
2016-12-31T03:46:47.610Z,71.36
2016-12-31T03:47:15.377Z,71.22
2016-12-31T03:47:43.183Z,71.64
2016-12-31T03:48:10.991Z,71.12
2016-12-31T03:48:38.817Z,71.94
2016-12-31T03:49:06.613Z,71.74
2016-12-31T03:49:34.396Z,71.55
2016-12-31T03:50:02.181Z,71.51
2016-12-31T03:50:29.989Z,71.74
2016-12-31T03:50:57.779Z,71.55
2016-12-31T03:51:25.533Z,71.45
2016-12-31T03:51:53.541Z,71.55
2016-12-31T03:52:21.374Z,71.51
2016-12-31T03:52:49.140Z,71.74
2016-12-31T03:53:16.896Z,71.55
2016-12-31T03:53:44.650Z,71.45
2016-12-31T03:54:12.445Z,71.45
2016-12-31T03:54:40.235Z,71.64
2016-12-31T03:55:08.026Z,71.84
2016-12-31T03:55:35.791Z,72.52
2016-12-31T03:56:03.581Z,72.23
2016-12-31T03:56:31.474Z,72.13
2016-12-31T03:56:59.266Z,72.49
2016-12-31T03:57:27.114Z,72
2016-12-31T03:57:54.871Z,71.9
2016-12-31T03:58:22.644Z,71.8
2016-12-31T03:58:50.392Z,72
2016-12-31T03:59:18.129Z,72.03
2016-12-31T03:59:45.926Z,72.09
2016-12-31T04:00:13.748Z,72.39
2016-12-31T04:00:41.519Z,72.09
2016-12-31T04:01:09.303Z,72.58
2016-12-31T04:01:37.185Z,72.58
2016-12-31T04:02:04.960Z,72.58
2016-12-31T04:02:32.720Z,72.39
2016-12-31T04:03:00.503Z,72.67
2016-12-31T04:03:28.328Z,72.39
2016-12-31T04:03:56.077Z,72.52
2016-12-31T04:04:23.843Z,72.29
2016-12-31T04:04:51.575Z,71.9
2016-12-31T04:05:19.360Z,72.42
2016-12-31T04:05:47.137Z,72.23
2016-12-31T04:06:14.904Z,72
2016-12-31T04:06:42.778Z,72.09
2016-12-31T04:07:10.601Z,72.03
2016-12-31T04:07:38.382Z,72.03
2016-12-31T04:08:06.157Z,72.09
2016-12-31T04:08:33.929Z,72.09
2016-12-31T04:09:01.686Z,72.13
2016-12-31T04:09:29.466Z,71.94
2016-12-31T04:09:57.282Z,72.13
2016-12-31T04:10:25.060Z,71.7
2016-12-31T04:10:52.825Z,71.8
2016-12-31T04:11:20.584Z,71.9
2016-12-31T04:11:48.533Z,72.29
2016-12-31T04:12:16.320Z,72.33
2016-12-31T04:12:44.097Z,72.03
2016-12-31T04:13:11.892Z,72.03
2016-12-31T04:13:39.718Z,72.52
2016-12-31T04:14:07.462Z,72.19
2016-12-31T04:14:35.245Z,72.19
2016-12-31T04:15:02.996Z,72.61
2016-12-31T04:15:30.729Z,72.52
2016-12-31T04:15:58.505Z,72.91
2016-12-31T04:16:26.288Z,72.19
2016-12-31T04:16:54.176Z,72.23
2016-12-31T04:17:22.021Z,71.84
2016-12-31T04:17:49.788Z,72.09
2016-12-31T04:18:17.550Z,72.23
2016-12-31T04:18:45.354Z,72.23
2016-12-31T04:19:13.227Z,71.74
2016-12-31T04:19:40.979Z,71.8
2016-12-31T04:20:08.723Z,71.64
2016-12-31T04:20:36.632Z,71.61
2016-12-31T04:21:04.394Z,71.94
2016-12-31T04:21:32.185Z,72.33
2016-12-31T04:22:00.072Z,71.84
2016-12-31T04:22:27.869Z,71.84
2016-12-31T04:22:55.617Z,71.94
2016-12-31T04:23:23.444Z,71.84
2016-12-31T04:23:51.247Z,72.03
2016-12-31T04:24:19.056Z,72.23
2016-12-31T04:24:46.897Z,72.19
2016-12-31T04:25:14.680Z,71.84
2016-12-31T04:25:42.425Z,72.23
2016-12-31T04:26:10.215Z,72.23
2016-12-31T04:26:37.983Z,71.74
2016-12-31T04:27:05.836Z,71.64
2016-12-31T04:27:33.636Z,71.74
2016-12-31T04:28:01.377Z,71.84
2016-12-31T04:28:29.147Z,71.84
2016-12-31T04:28:56.940Z,71.8
2016-12-31T04:29:24.679Z,71.45
2016-12-31T04:29:52.444Z,71.42
2016-12-31T04:30:20.228Z,71.64
2016-12-31T04:30:48.036Z,71.84
2016-12-31T04:31:15.763Z,72.03
2016-12-31T04:31:43.541Z,71.74
2016-12-31T04:32:11.426Z,71.94
2016-12-31T04:32:39.161Z,72.03
2016-12-31T04:33:06.971Z,72.13
2016-12-31T04:33:34.705Z,72.03
2016-12-31T04:34:02.497Z,72.39
2016-12-31T04:34:30.268Z,72.23
2016-12-31T04:34:58.036Z,72.13
2016-12-31T04:35:25.795Z,72.13
2016-12-31T04:35:53.595Z,72.03
2016-12-31T04:36:21.368Z,72.19
2016-12-31T04:36:49.143Z,72.61
2016-12-31T04:37:17.026Z,72.42
2016-12-31T04:37:44.850Z,72.39
2016-12-31T04:38:12.648Z,72
2016-12-31T04:38:40.413Z,72
2016-12-31T04:39:08.208Z,71.94
2016-12-31T04:39:35.962Z,71.94
2016-12-31T04:40:03.714Z,72.13
2016-12-31T04:40:31.479Z,72.29
2016-12-31T04:40:59.244Z,72.13
2016-12-31T04:41:27.039Z,71.84
2016-12-31T04:41:54.788Z,72.58
2016-12-31T04:42:22.651Z,72.29
2016-12-31T04:42:50.401Z,72.09
2016-12-31T04:43:18.244Z,72.29
2016-12-31T04:43:46.038Z,72.33
2016-12-31T04:44:13.868Z,72.39
2016-12-31T04:44:41.622Z,72.39
2016-12-31T04:45:09.389Z,72.09
2016-12-31T04:45:37.177Z,72.29
2016-12-31T04:46:04.987Z,72.09
2016-12-31T04:46:32.803Z,72.13
2016-12-31T04:47:00.607Z,72.42
2016-12-31T04:47:28.489Z,72.39
2016-12-31T04:47:56.278Z,72.58
2016-12-31T04:48:24.059Z,72.58
2016-12-31T04:48:51.854Z,72.39
2016-12-31T04:49:19.633Z,72.58
2016-12-31T04:49:47.427Z,72.77
2016-12-31T04:50:15.171Z,72.77
2016-12-31T04:50:42.942Z,72.67
2016-12-31T04:51:10.705Z,72.87
2016-12-31T04:51:38.487Z,73.36
2016-12-31T04:52:06.246Z,73.07
2016-12-31T04:52:34.149Z,72.97
2016-12-31T04:53:02.027Z,72.97
2016-12-31T04:53:29.822Z,73.26
2016-12-31T04:53:57.634Z,73.26
2016-12-31T04:54:25.393Z,72.67
2016-12-31T04:54:53.146Z,72.67
2016-12-31T04:55:20.909Z,72.87
2016-12-31T04:55:48.692Z,72.77
2016-12-31T04:56:16.430Z,72.87
2016-12-31T04:56:44.222Z,72.67
2016-12-31T04:57:12.028Z,72.77
2016-12-31T04:57:39.940Z,72.87
2016-12-31T04:58:07.665Z,72.97
2016-12-31T04:58:35.437Z,73.07
2016-12-31T04:59:03.243Z,72.77
2016-12-31T04:59:31.083Z,72.87
2016-12-31T04:59:58.856Z,72.67
2016-12-31T05:00:26.626Z,73.16
2016-12-31T05:00:54.384Z,73.55
2016-12-31T05:01:22.179Z,73.55
2016-12-31T05:01:49.965Z,73.16
2016-12-31T05:02:17.743Z,73.36
2016-12-31T05:02:45.648Z,73.26
2016-12-31T05:03:13.493Z,73.65
2016-12-31T05:03:41.297Z,73.65
2016-12-31T05:04:09.140Z,73.16
2016-12-31T05:04:36.934Z,72.67
2016-12-31T05:05:04.757Z,72.87
2016-12-31T05:05:32.558Z,72.77
2016-12-31T05:06:00.315Z,73.07
2016-12-31T05:06:28.211Z,72.87
2016-12-31T05:06:55.988Z,73.16
2016-12-31T05:07:23.748Z,72.77
2016-12-31T05:07:51.646Z,72.97
2016-12-31T05:08:19.421Z,73.46
2016-12-31T05:08:47.198Z,73.46
2016-12-31T05:09:15.004Z,73.46
2016-12-31T05:09:42.780Z,73.26
2016-12-31T05:10:10.571Z,73.46
2016-12-31T05:10:38.348Z,73.46
2016-12-31T05:11:06.141Z,73.46
2016-12-31T05:11:33.915Z,73.65
2016-12-31T05:12:01.673Z,73.36
2016-12-31T05:12:29.570Z,73.74
2016-12-31T05:12:57.459Z,74
2016-12-31T05:13:25.225Z,73.71
2016-12-31T05:13:53.055Z,73.84
2016-12-31T05:14:20.817Z,74.43
2016-12-31T05:14:48.615Z,74.39
2016-12-31T05:15:16.433Z,74.39
2016-12-31T05:15:44.745Z,74.29
2016-12-31T05:16:12.541Z,74.29
2016-12-31T05:16:40.287Z,74.29
2016-12-31T05:17:08.085Z,74
2016-12-31T05:17:35.869Z,74.04
2016-12-31T05:18:03.742Z,74.13
2016-12-31T05:18:31.516Z,73.42
2016-12-31T05:18:59.315Z,73.42
2016-12-31T05:19:27.131Z,73.71
2016-12-31T05:19:54.948Z,73.65
2016-12-31T05:20:22.754Z,73.74
2016-12-31T05:20:50.548Z,73.94
2016-12-31T05:21:18.350Z,73.74
2016-12-31T05:21:46.182Z,74.13
2016-12-31T05:22:13.958Z,73.46
2016-12-31T05:22:41.832Z,73.84
2016-12-31T05:23:09.642Z,73.55
2016-12-31T05:23:37.397Z,73.46
2016-12-31T05:24:05.143Z,73.26
2016-12-31T05:24:32.883Z,73.65
2016-12-31T05:25:00.683Z,73.55
2016-12-31T05:25:28.538Z,73.74
2016-12-31T05:25:56.297Z,73.8
2016-12-31T05:26:24.085Z,73.74
2016-12-31T05:26:51.919Z,73.71
2016-12-31T05:27:19.715Z,73.52
2016-12-31T05:27:47.581Z,74.23
2016-12-31T05:28:15.373Z,75.26
2016-12-31T05:28:43.194Z,74.49
2016-12-31T05:29:10.962Z,75.16
2016-12-31T05:29:38.721Z,74.97
2016-12-31T05:30:06.494Z,74.58
2016-12-31T05:30:34.285Z,74.97
2016-12-31T05:31:02.092Z,74.97
2016-12-31T05:31:29.882Z,74.77
2016-12-31T05:31:57.641Z,75.16
2016-12-31T05:32:25.415Z,74.97
2016-12-31T05:32:53.284Z,74.97
2016-12-31T05:33:21.043Z,74.49
2016-12-31T05:33:48.884Z,74.19
2016-12-31T05:34:16.663Z,74.29
2016-12-31T05:34:44.439Z,74.1
2016-12-31T05:35:12.213Z,74.52
2016-12-31T05:35:40.022Z,74.29
2016-12-31T05:36:07.814Z,74.39
2016-12-31T05:36:35.640Z,73.61
2016-12-31T05:37:03.432Z,73.74
2016-12-31T05:37:31.212Z,73.65
2016-12-31T05:37:59.073Z,74.04
2016-12-31T05:38:26.859Z,73.84
2016-12-31T05:38:54.628Z,73.74
2016-12-31T05:39:22.386Z,73.65
2016-12-31T05:39:50.276Z,73.65
2016-12-31T05:40:18.134Z,73.65
2016-12-31T05:40:45.956Z,73.55
2016-12-31T05:41:13.794Z,73.36
2016-12-31T05:41:41.641Z,73.65
2016-12-31T05:42:09.484Z,74.13
2016-12-31T05:42:37.220Z,73.94
2016-12-31T05:43:05.118Z,73.74
2016-12-31T05:43:32.857Z,73.84
2016-12-31T05:44:00.617Z,74.13
2016-12-31T05:44:28.446Z,73.52
2016-12-31T05:44:56.241Z,74.39
2016-12-31T05:45:24.094Z,74.19
2016-12-31T05:45:51.870Z,74.39
2016-12-31T05:46:19.647Z,74.19
2016-12-31T05:46:47.435Z,74
2016-12-31T05:47:15.274Z,74.1
2016-12-31T05:47:43.058Z,74.49
2016-12-31T05:48:11.068Z,74.39
2016-12-31T05:48:38.848Z,74.1
2016-12-31T05:49:06.584Z,74.29
2016-12-31T05:49:34.383Z,73.8
2016-12-31T05:50:02.225Z,74
2016-12-31T05:50:30.028Z,74.19
2016-12-31T05:50:57.885Z,74.39
2016-12-31T05:51:25.643Z,74.19
2016-12-31T05:51:53.409Z,73.71
2016-12-31T05:52:21.156Z,73.84
2016-12-31T05:52:49.007Z,73.71
2016-12-31T05:53:16.940Z,73.71
2016-12-31T05:53:44.693Z,73.74
2016-12-31T05:54:12.558Z,73.94
2016-12-31T05:54:40.405Z,74.04
2016-12-31T05:55:08.151Z,74.04
2016-12-31T05:55:35.942Z,73.71
2016-12-31T05:56:03.714Z,73.71
2016-12-31T05:56:31.479Z,74
2016-12-31T05:56:59.274Z,73.71
2016-12-31T05:57:27.090Z,73.84
2016-12-31T05:57:54.878Z,73.9
2016-12-31T05:58:22.929Z,74.13
2016-12-31T05:58:50.689Z,73.74
2016-12-31T05:59:18.516Z,73.52